sensor_id;sensor_type;location;lat;lon;timestamp;temperature;humidity
546;DHT22;259;53.304;9.816;2022-09-09T00:04:32;18.10;95.00
546;DHT22;259;53.304;9.816;2022-09-09T00:09:52;18.10;95.00
546;DHT22;259;53.304;9.816;2022-09-09T00:13:08;18.10;95.00
546;DHT22;259;53.304;9.816;2022-09-09T00:15:20;18.10;95.10
546;DHT22;259;53.304;9.816;2022-09-09T00:18:22;18.10;95.00
546;DHT22;259;53.304;9.816;2022-09-09T00:20:58;18.10;95.00
546;DHT22;259;53.304;9.816;2022-09-09T00:23:30;18.10;95.00
546;DHT22;259;53.304;9.816;2022-09-09T00:26:19;18.10;95.10
546;DHT22;259;53.304;9.816;2022-09-09T00:28:52;18.10;95.00
546;DHT22;259;53.304;9.816;2022-09-09T00:31:23;18.10;95.00
546;DHT22;259;53.304;9.816;2022-09-09T00:33:50;18.00;95.00
546;DHT22;259;53.304;9.816;2022-09-09T00:36:21;18.00;95.00
546;DHT22;259;53.304;9.816;2022-09-09T00:38:57;18.00;95.00
546;DHT22;259;53.304;9.816;2022-09-09T00:41:36;18.00;95.00
546;DHT22;259;53.304;9.816;2022-09-09T00:44:16;18.00;95.00
546;DHT22;259;53.304;9.816;2022-09-09T00:49:55;18.00;95.00
546;DHT22;259;53.304;9.816;2022-09-09T00:52:51;18.00;95.00
546;DHT22;259;53.304;9.816;2022-09-09T00:55:48;18.00;95.00
546;DHT22;259;53.304;9.816;2022-09-09T00:58:15;18.00;95.10
546;DHT22;259;53.304;9.816;2022-09-09T01:00:51;18.00;95.00
546;DHT22;259;53.304;9.816;2022-09-09T01:06:18;17.90;95.00
546;DHT22;259;53.304;9.816;2022-09-09T01:09:12;17.90;95.10
546;DHT22;259;53.304;9.816;2022-09-09T01:11:55;17.90;95.00
546;DHT22;259;53.304;9.816;2022-09-09T01:17:05;18.00;94.90
546;DHT22;259;53.304;9.816;2022-09-09T01:19:45;17.90;95.00
546;DHT22;259;53.304;9.816;2022-09-09T01:27:42;18.00;95.00
546;DHT22;259;53.304;9.816;2022-09-09T01:30:11;18.00;95.00
546;DHT22;259;53.304;9.816;2022-09-09T01:32:42;18.00;95.00
546;DHT22;259;53.304;9.816;2022-09-09T01:35:12;18.00;95.10
546;DHT22;259;53.304;9.816;2022-09-09T01:37:40;18.00;95.10
546;DHT22;259;53.304;9.816;2022-09-09T01:40:06;17.90;95.10
546;DHT22;259;53.304;9.816;2022-09-09T01:42:32;17.90;95.20
546;DHT22;259;53.304;9.816;2022-09-09T01:44:58;17.90;95.00
546;DHT22;259;53.304;9.816;2022-09-09T01:47:23;17.90;95.10
546;DHT22;259;53.304;9.816;2022-09-09T01:49:49;17.90;95.00
546;DHT22;259;53.304;9.816;2022-09-09T01:52:15;17.90;95.00
546;DHT22;259;53.304;9.816;2022-09-09T01:54:40;17.90;95.00
546;DHT22;259;53.304;9.816;2022-09-09T02:00:05;17.90;95.00
546;DHT22;259;53.304;9.816;2022-09-09T02:07:50;17.90;95.10
546;DHT22;259;53.304;9.816;2022-09-09T02:12:51;17.90;95.10
546;DHT22;259;53.304;9.816;2022-09-09T02:18:24;17.80;95.30
546;DHT22;259;53.304;9.816;2022-09-09T02:20:52;17.80;94.90
546;DHT22;259;53.304;9.816;2022-09-09T02:23:19;17.80;95.00
546;DHT22;259;53.304;9.816;2022-09-09T02:25:45;17.80;95.10
546;DHT22;259;53.304;9.816;2022-09-09T02:28:14;17.80;95.10
546;DHT22;259;53.304;9.816;2022-09-09T02:30:42;17.80;94.90
546;DHT22;259;53.304;9.816;2022-09-09T02:33:11;17.80;95.00
546;DHT22;259;53.304;9.816;2022-09-09T02:35:38;17.80;94.90
546;DHT22;259;53.304;9.816;2022-09-09T02:38:10;17.80;94.90
546;DHT22;259;53.304;9.816;2022-09-09T02:40:36;17.80;94.90
546;DHT22;259;53.304;9.816;2022-09-09T02:43:02;17.80;95.00
546;DHT22;259;53.304;9.816;2022-09-09T02:45:40;17.80;94.90
546;DHT22;259;53.304;9.816;2022-09-09T02:48:43;17.80;95.00
546;DHT22;259;53.304;9.816;2022-09-09T02:51:39;17.80;95.00
546;DHT22;259;53.304;9.816;2022-09-09T02:54:27;17.80;95.10
546;DHT22;259;53.304;9.816;2022-09-09T02:56:59;17.80;94.90
546;DHT22;259;53.304;9.816;2022-09-09T02:59:27;17.70;94.80
546;DHT22;259;53.304;9.816;2022-09-09T03:01:53;17.80;94.90
546;DHT22;259;53.304;9.816;2022-09-09T03:04:18;17.80;94.90
546;DHT22;259;53.304;9.816;2022-09-09T03:06:44;17.80;95.00
546;DHT22;259;53.304;9.816;2022-09-09T03:09:09;17.80;94.90
546;DHT22;259;53.304;9.816;2022-09-09T03:11:36;17.80;94.90
546;DHT22;259;53.304;9.816;2022-09-09T03:14:02;17.80;95.00
546;DHT22;259;53.304;9.816;2022-09-09T03:16:27;17.80;95.00
546;DHT22;259;53.304;9.816;2022-09-09T03:18:53;17.80;95.00
546;DHT22;259;53.304;9.816;2022-09-09T03:21:18;17.70;95.10
546;DHT22;259;53.304;9.816;2022-09-09T03:23:44;17.70;95.00
546;DHT22;259;53.304;9.816;2022-09-09T03:26:10;17.70;94.90
546;DHT22;259;53.304;9.816;2022-09-09T03:28:36;17.70;95.10
546;DHT22;259;53.304;9.816;2022-09-09T03:31:05;17.70;95.00
546;DHT22;259;53.304;9.816;2022-09-09T03:33:31;17.70;95.00
546;DHT22;259;53.304;9.816;2022-09-09T03:35:57;17.70;95.00
546;DHT22;259;53.304;9.816;2022-09-09T03:38:23;17.70;95.00
546;DHT22;259;53.304;9.816;2022-09-09T03:40:54;17.70;94.90
546;DHT22;259;53.304;9.816;2022-09-09T03:43:26;17.70;95.00
546;DHT22;259;53.304;9.816;2022-09-09T03:45:53;17.70;95.00
546;DHT22;259;53.304;9.816;2022-09-09T03:48:22;17.70;94.90
546;DHT22;259;53.304;9.816;2022-09-09T03:50:52;17.70;95.00
546;DHT22;259;53.304;9.816;2022-09-09T03:53:20;17.70;94.90
546;DHT22;259;53.304;9.816;2022-09-09T03:55:48;17.70;94.90
546;DHT22;259;53.304;9.816;2022-09-09T03:58:15;17.60;94.80
546;DHT22;259;53.304;9.816;2022-09-09T04:00:41;17.60;94.90
546;DHT22;259;53.304;9.816;2022-09-09T04:03:11;17.60;94.90
546;DHT22;259;53.304;9.816;2022-09-09T04:05:39;17.60;94.90
546;DHT22;259;53.304;9.816;2022-09-09T04:08:07;17.60;94.80
546;DHT22;259;53.304;9.816;2022-09-09T04:10:34;17.60;94.90
546;DHT22;259;53.304;9.816;2022-09-09T04:13:02;17.60;94.90
546;DHT22;259;53.304;9.816;2022-09-09T04:15:27;17.60;94.90
546;DHT22;259;53.304;9.816;2022-09-09T04:17:53;17.60;95.00
546;DHT22;259;53.304;9.816;2022-09-09T04:20:19;17.60;94.90
546;DHT22;259;53.304;9.816;2022-09-09T04:22:44;17.60;94.90
546;DHT22;259;53.304;9.816;2022-09-09T04:25:10;17.60;95.00
546;DHT22;259;53.304;9.816;2022-09-09T04:27:36;17.60;95.10
546;DHT22;259;53.304;9.816;2022-09-09T04:30:01;17.60;95.00
546;DHT22;259;53.304;9.816;2022-09-09T04:32:27;17.50;94.80
546;DHT22;259;53.304;9.816;2022-09-09T04:34:52;17.50;95.10
546;DHT22;259;53.304;9.816;2022-09-09T04:37:18;17.50;95.00
546;DHT22;259;53.304;9.816;2022-09-09T04:39:44;17.50;94.80
546;DHT22;259;53.304;9.816;2022-09-09T04:42:10;17.50;94.80
546;DHT22;259;53.304;9.816;2022-09-09T04:44:36;17.50;94.80
546;DHT22;259;53.304;9.816;2022-09-09T04:47:02;17.50;94.80
546;DHT22;259;53.304;9.816;2022-09-09T04:49:27;17.50;94.80
546;DHT22;259;53.304;9.816;2022-09-09T04:51:53;17.50;94.80
546;DHT22;259;53.304;9.816;2022-09-09T04:54:18;17.60;94.80
546;DHT22;259;53.304;9.816;2022-09-09T04:56:44;17.60;94.80
546;DHT22;259;53.304;9.816;2022-09-09T04:59:09;17.50;94.80
546;DHT22;259;53.304;9.816;2022-09-09T05:01:35;17.50;94.80
546;DHT22;259;53.304;9.816;2022-09-09T05:04:02;17.50;95.00
546;DHT22;259;53.304;9.816;2022-09-09T05:06:28;17.50;95.00
546;DHT22;259;53.304;9.816;2022-09-09T05:08:56;17.50;94.90
546;DHT22;259;53.304;9.816;2022-09-09T05:11:25;17.50;95.10
546;DHT22;259;53.304;9.816;2022-09-09T05:13:53;17.50;95.00
546;DHT22;259;53.304;9.816;2022-09-09T05:16:20;17.50;95.00
546;DHT22;259;53.304;9.816;2022-09-09T05:18:45;17.50;94.90
546;DHT22;259;53.304;9.816;2022-09-09T05:21:13;17.50;94.80
546;DHT22;259;53.304;9.816;2022-09-09T05:23:39;17.50;95.10
546;DHT22;259;53.304;9.816;2022-09-09T05:26:06;17.50;94.90
546;DHT22;259;53.304;9.816;2022-09-09T05:28:34;17.50;95.10
546;DHT22;259;53.304;9.816;2022-09-09T05:31:02;17.50;94.90
546;DHT22;259;53.304;9.816;2022-09-09T05:33:31;17.50;94.90
546;DHT22;259;53.304;9.816;2022-09-09T05:36:02;17.50;94.80
546;DHT22;259;53.304;9.816;2022-09-09T05:38:28;17.40;95.00
546;DHT22;259;53.304;9.816;2022-09-09T05:40:54;17.40;94.90
546;DHT22;259;53.304;9.816;2022-09-09T05:43:22;17.40;94.80
546;DHT22;259;53.304;9.816;2022-09-09T05:45:48;17.40;94.80
546;DHT22;259;53.304;9.816;2022-09-09T05:48:23;17.40;95.00
546;DHT22;259;53.304;9.816;2022-09-09T05:50:53;17.40;94.90
546;DHT22;259;53.304;9.816;2022-09-09T05:53:19;17.40;95.00
546;DHT22;259;53.304;9.816;2022-09-09T05:55:45;17.40;94.90
546;DHT22;259;53.304;9.816;2022-09-09T05:58:11;17.40;95.20
546;DHT22;259;53.304;9.816;2022-09-09T06:00:37;17.40;95.10
546;DHT22;259;53.304;9.816;2022-09-09T06:03:03;17.40;95.10
546;DHT22;259;53.304;9.816;2022-09-09T06:05:29;17.40;95.00
546;DHT22;259;53.304;9.816;2022-09-09T06:07:55;17.40;95.20
546;DHT22;259;53.304;9.816;2022-09-09T06:10:21;17.40;95.10
546;DHT22;259;53.304;9.816;2022-09-09T06:12:47;17.40;95.20
546;DHT22;259;53.304;9.816;2022-09-09T06:15:13;17.40;95.10
546;DHT22;259;53.304;9.816;2022-09-09T06:17:38;17.40;95.10
546;DHT22;259;53.304;9.816;2022-09-09T06:20:04;17.40;95.00
546;DHT22;259;53.304;9.816;2022-09-09T06:22:30;17.40;95.20
546;DHT22;259;53.304;9.816;2022-09-09T06:24:55;17.40;95.00
546;DHT22;259;53.304;9.816;2022-09-09T06:27:21;17.40;94.90
546;DHT22;259;53.304;9.816;2022-09-09T06:29:47;17.40;94.90
546;DHT22;259;53.304;9.816;2022-09-09T06:32:13;17.40;94.90
546;DHT22;259;53.304;9.816;2022-09-09T06:34:39;17.40;94.90
546;DHT22;259;53.304;9.816;2022-09-09T06:37:05;17.40;94.90
546;DHT22;259;53.304;9.816;2022-09-09T06:39:32;17.40;94.90
546;DHT22;259;53.304;9.816;2022-09-09T06:41:57;17.40;94.90
546;DHT22;259;53.304;9.816;2022-09-09T06:44:24;17.40;95.00
546;DHT22;259;53.304;9.816;2022-09-09T06:46:52;17.40;95.00
546;DHT22;259;53.304;9.816;2022-09-09T06:49:17;17.40;95.40
546;DHT22;259;53.304;9.816;2022-09-09T06:51:43;17.40;95.10
546;DHT22;259;53.304;9.816;2022-09-09T06:54:10;17.40;95.10
546;DHT22;259;53.304;9.816;2022-09-09T06:56:38;17.40;95.10
546;DHT22;259;53.304;9.816;2022-09-09T06:59:07;17.40;95.10
546;DHT22;259;53.304;9.816;2022-09-09T07:01:36;17.40;95.10
546;DHT22;259;53.304;9.816;2022-09-09T07:04:03;17.40;95.10
546;DHT22;259;53.304;9.816;2022-09-09T07:06:31;17.40;95.10
546;DHT22;259;53.304;9.816;2022-09-09T07:08:59;17.40;94.80
546;DHT22;259;53.304;9.816;2022-09-09T07:11:28;17.40;95.40
546;DHT22;259;53.304;9.816;2022-09-09T07:13:54;17.40;95.60
546;DHT22;259;53.304;9.816;2022-09-09T07:16:21;17.40;95.40
546;DHT22;259;53.304;9.816;2022-09-09T07:18:49;17.50;95.70
546;DHT22;259;53.304;9.816;2022-09-09T07:21:16;17.50;95.80
546;DHT22;259;53.304;9.816;2022-09-09T07:23:41;17.60;95.90
546;DHT22;259;53.304;9.816;2022-09-09T07:26:12;17.60;95.80
546;DHT22;259;53.304;9.816;2022-09-09T07:28:39;17.70;96.00
546;DHT22;259;53.304;9.816;2022-09-09T07:31:15;17.70;96.10
546;DHT22;259;53.304;9.816;2022-09-09T07:33:42;17.70;96.10
546;DHT22;259;53.304;9.816;2022-09-09T07:36:19;17.80;96.20
546;DHT22;259;53.304;9.816;2022-09-09T07:38:53;17.80;96.10
546;DHT22;259;53.304;9.816;2022-09-09T07:41:25;17.80;96.30
546;DHT22;259;53.304;9.816;2022-09-09T07:43:51;17.90;96.10
546;DHT22;259;53.304;9.816;2022-09-09T07:46:21;17.90;96.00
546;DHT22;259;53.304;9.816;2022-09-09T07:48:49;17.90;96.00
546;DHT22;259;53.304;9.816;2022-09-09T07:51:22;17.90;96.00
546;DHT22;259;53.304;9.816;2022-09-09T07:53:51;17.90;96.10
546;DHT22;259;53.304;9.816;2022-09-09T07:56:18;17.90;96.30
546;DHT22;259;53.304;9.816;2022-09-09T07:58:47;18.00;96.60
546;DHT22;259;53.304;9.816;2022-09-09T08:01:19;18.00;96.70
546;DHT22;259;53.304;9.816;2022-09-09T08:03:46;18.00;97.90
546;DHT22;259;53.304;9.816;2022-09-09T08:06:13;18.10;98.00
546;DHT22;259;53.304;9.816;2022-09-09T08:08:39;18.10;98.20
546;DHT22;259;53.304;9.816;2022-09-09T08:11:14;18.10;99.10
546;DHT22;259;53.304;9.816;2022-09-09T08:13:41;18.20;99.40
546;DHT22;259;53.304;9.816;2022-09-09T08:16:10;18.30;99.40
546;DHT22;259;53.304;9.816;2022-09-09T08:18:37;18.30;99.60
546;DHT22;259;53.304;9.816;2022-09-09T08:21:12;18.30;99.60
546;DHT22;259;53.304;9.816;2022-09-09T08:23:42;18.30;99.60
546;DHT22;259;53.304;9.816;2022-09-09T08:26:17;18.40;99.80
546;DHT22;259;53.304;9.816;2022-09-09T08:28:44;18.40;99.90
546;DHT22;259;53.304;9.816;2022-09-09T08:31:16;18.40;99.90
546;DHT22;259;53.304;9.816;2022-09-09T08:33:42;18.40;99.90
546;DHT22;259;53.304;9.816;2022-09-09T08:36:13;18.40;99.90
546;DHT22;259;53.304;9.816;2022-09-09T08:38:40;18.50;99.90
546;DHT22;259;53.304;9.816;2022-09-09T08:41:35;18.50;99.90
546;DHT22;259;53.304;9.816;2022-09-09T08:53:04;18.70;99.90
546;DHT22;259;53.304;9.816;2022-09-09T08:55:37;18.60;99.90
546;DHT22;259;53.304;9.816;2022-09-09T08:58:11;18.60;99.90
546;DHT22;259;53.304;9.816;2022-09-09T09:06:46;18.60;99.90
546;DHT22;259;53.304;9.816;2022-09-09T09:09:33;18.60;99.90
546;DHT22;259;53.304;9.816;2022-09-09T09:12:40;18.60;99.90
546;DHT22;259;53.304;9.816;2022-09-09T09:14:59;18.60;99.90
546;DHT22;259;53.304;9.816;2022-09-09T09:17:27;18.70;99.90
546;DHT22;259;53.304;9.816;2022-09-09T09:19:54;18.70;99.90
546;DHT22;259;53.304;9.816;2022-09-09T09:22:49;18.70;99.90
546;DHT22;259;53.304;9.816;2022-09-09T09:25:22;18.70;99.90
546;DHT22;259;53.304;9.816;2022-09-09T09:30:22;18.70;99.90
546;DHT22;259;53.304;9.816;2022-09-09T09:32:53;18.70;99.90
546;DHT22;259;53.304;9.816;2022-09-09T09:35:19;18.70;99.90
546;DHT22;259;53.304;9.816;2022-09-09T09:37:45;18.70;99.90
546;DHT22;259;53.304;9.816;2022-09-09T09:40:19;18.70;99.90
546;DHT22;259;53.304;9.816;2022-09-09T09:43:01;18.70;99.90
546;DHT22;259;53.304;9.816;2022-09-09T09:45:40;18.70;99.90
546;DHT22;259;53.304;9.816;2022-09-09T09:48:10;18.70;99.90
546;DHT22;259;53.304;9.816;2022-09-09T09:53:47;18.70;99.90
546;DHT22;259;53.304;9.816;2022-09-09T09:56:15;18.70;99.90
546;DHT22;259;53.304;9.816;2022-09-09T10:01:30;18.70;99.90
546;DHT22;259;53.304;9.816;2022-09-09T10:04:14;18.80;99.90
546;DHT22;259;53.304;9.816;2022-09-09T10:06:41;18.80;99.90
546;DHT22;259;53.304;9.816;2022-09-09T10:09:30;18.80;99.90
546;DHT22;259;53.304;9.816;2022-09-09T10:12:19;18.80;99.90
546;DHT22;259;53.304;9.816;2022-09-09T10:17:57;18.80;99.90
546;DHT22;259;53.304;9.816;2022-09-09T10:20:58;18.80;99.90
546;DHT22;259;53.304;9.816;2022-09-09T10:31:59;18.90;99.90
546;DHT22;259;53.304;9.816;2022-09-09T10:34:36;18.90;99.90
546;DHT22;259;53.304;9.816;2022-09-09T10:37:16;18.90;99.90
546;DHT22;259;53.304;9.816;2022-09-09T10:39:49;18.90;99.90
546;DHT22;259;53.304;9.816;2022-09-09T10:42:26;18.90;99.90
546;DHT22;259;53.304;9.816;2022-09-09T10:47:55;18.90;99.90
546;DHT22;259;53.304;9.816;2022-09-09T10:55:20;18.80;99.90
546;DHT22;259;53.304;9.816;2022-09-09T10:57:51;18.80;99.90
546;DHT22;259;53.304;9.816;2022-09-09T11:00:22;18.80;99.90
546;DHT22;259;53.304;9.816;2022-09-09T11:02:58;18.80;99.90
546;DHT22;259;53.304;9.816;2022-09-09T11:07:59;18.80;99.90
546;DHT22;259;53.304;9.816;2022-09-09T11:13:55;18.80;99.90
546;DHT22;259;53.304;9.816;2022-09-09T11:16:45;18.80;99.90
546;DHT22;259;53.304;9.816;2022-09-09T11:19:32;18.80;99.90
546;DHT22;259;53.304;9.816;2022-09-09T11:27:24;18.80;99.90
546;DHT22;259;53.304;9.816;2022-09-09T11:36:50;18.80;99.90
546;DHT22;259;53.304;9.816;2022-09-09T11:42:26;18.80;99.90
546;DHT22;259;53.304;9.816;2022-09-09T11:44:51;18.80;99.90
546;DHT22;259;53.304;9.816;2022-09-09T11:47:29;18.90;99.90
546;DHT22;259;53.304;9.816;2022-09-09T11:52:42;18.90;99.90
546;DHT22;259;53.304;9.816;2022-09-09T11:55:28;18.90;99.90
546;DHT22;259;53.304;9.816;2022-09-09T12:00:40;18.90;99.90
546;DHT22;259;53.304;9.816;2022-09-09T12:08:37;19.00;99.90
546;DHT22;259;53.304;9.816;2022-09-09T12:11:06;19.00;99.90
546;DHT22;259;53.304;9.816;2022-09-09T12:13:32;19.00;99.90
546;DHT22;259;53.304;9.816;2022-09-09T12:15:59;19.00;99.90
546;DHT22;259;53.304;9.816;2022-09-09T12:18:37;19.00;99.90
546;DHT22;259;53.304;9.816;2022-09-09T12:21:34;19.00;99.90
546;DHT22;259;53.304;9.816;2022-09-09T12:26:41;19.00;99.90
546;DHT22;259;53.304;9.816;2022-09-09T12:29:23;19.00;99.90
546;DHT22;259;53.304;9.816;2022-09-09T12:32:16;18.90;99.90
546;DHT22;259;53.304;9.816;2022-09-09T12:43:19;18.90;99.90
546;DHT22;259;53.304;9.816;2022-09-09T12:45:46;18.90;99.90
546;DHT22;259;53.304;9.816;2022-09-09T12:48:17;18.90;99.90
546;DHT22;259;53.304;9.816;2022-09-09T12:50:49;18.90;99.90
546;DHT22;259;53.304;9.816;2022-09-09T12:56:21;18.90;99.90
546;DHT22;259;53.304;9.816;2022-09-09T12:58:49;18.80;99.90
546;DHT22;259;53.304;9.816;2022-09-09T13:01:25;18.80;99.90
546;DHT22;259;53.304;9.816;2022-09-09T13:03:51;18.80;99.90
546;DHT22;259;53.304;9.816;2022-09-09T13:06:26;18.80;99.90
546;DHT22;259;53.304;9.816;2022-09-09T13:08:53;18.80;99.90
546;DHT22;259;53.304;9.816;2022-09-09T13:11:35;18.80;99.90
546;DHT22;259;53.304;9.816;2022-09-09T13:14:02;18.80;99.90
546;DHT22;259;53.304;9.816;2022-09-09T13:16:30;18.80;99.90
546;DHT22;259;53.304;9.816;2022-09-09T13:18:58;18.80;99.90
546;DHT22;259;53.304;9.816;2022-09-09T13:21:33;18.80;99.90
546;DHT22;259;53.304;9.816;2022-09-09T13:23:59;18.80;99.80
546;DHT22;259;53.304;9.816;2022-09-09T13:26:28;18.80;99.70
546;DHT22;259;53.304;9.816;2022-09-09T13:29:07;18.80;99.70
546;DHT22;259;53.304;9.816;2022-09-09T13:31:36;18.80;99.70
546;DHT22;259;53.304;9.816;2022-09-09T13:34:31;18.80;99.80
546;DHT22;259;53.304;9.816;2022-09-09T13:37:06;18.80;99.70
546;DHT22;259;53.304;9.816;2022-09-09T13:39:37;18.80;99.70
546;DHT22;259;53.304;9.816;2022-09-09T13:42:04;18.80;99.70
546;DHT22;259;53.304;9.816;2022-09-09T13:44:39;18.80;99.70
546;DHT22;259;53.304;9.816;2022-09-09T13:49:39;18.80;99.70
546;DHT22;259;53.304;9.816;2022-09-09T13:52:15;18.80;99.70
546;DHT22;259;53.304;9.816;2022-09-09T13:54:42;18.80;99.70
546;DHT22;259;53.304;9.816;2022-09-09T13:59:36;18.70;99.60
546;DHT22;259;53.304;9.816;2022-09-09T14:02:02;18.70;99.70
546;DHT22;259;53.304;9.816;2022-09-09T14:04:27;18.70;99.70
546;DHT22;259;53.304;9.816;2022-09-09T14:06:53;18.70;99.70
546;DHT22;259;53.304;9.816;2022-09-09T14:09:19;18.70;99.70
546;DHT22;259;53.304;9.816;2022-09-09T14:11:45;18.70;99.70
546;DHT22;259;53.304;9.816;2022-09-09T14:14:11;18.70;99.70
546;DHT22;259;53.304;9.816;2022-09-09T14:16:37;18.70;99.70
546;DHT22;259;53.304;9.816;2022-09-09T14:19:03;18.70;99.70
546;DHT22;259;53.304;9.816;2022-09-09T14:21:28;18.70;99.70
546;DHT22;259;53.304;9.816;2022-09-09T14:23:54;18.70;99.70
546;DHT22;259;53.304;9.816;2022-09-09T14:26:21;18.70;99.70
546;DHT22;259;53.304;9.816;2022-09-09T14:28:47;18.70;99.70
546;DHT22;259;53.304;9.816;2022-09-09T14:31:13;18.70;99.70
546;DHT22;259;53.304;9.816;2022-09-09T14:33:40;18.70;99.60
546;DHT22;259;53.304;9.816;2022-09-09T14:36:05;18.70;99.50
546;DHT22;259;53.304;9.816;2022-09-09T14:38:34;18.70;99.60
546;DHT22;259;53.304;9.816;2022-09-09T14:41:00;18.70;99.70
546;DHT22;259;53.304;9.816;2022-09-09T14:43:28;18.70;99.70
546;DHT22;259;53.304;9.816;2022-09-09T14:45:55;18.70;99.70
546;DHT22;259;53.304;9.816;2022-09-09T14:48:21;18.70;99.70
546;DHT22;259;53.304;9.816;2022-09-09T14:50:47;18.70;99.70
546;DHT22;259;53.304;9.816;2022-09-09T14:53:12;18.70;99.70
546;DHT22;259;53.304;9.816;2022-09-09T14:55:38;18.70;99.70
546;DHT22;259;53.304;9.816;2022-09-09T14:58:04;18.70;99.70
546;DHT22;259;53.304;9.816;2022-09-09T15:00:31;18.70;99.70
546;DHT22;259;53.304;9.816;2022-09-09T15:02:57;18.70;99.60
546;DHT22;259;53.304;9.816;2022-09-09T15:05:22;18.70;99.60
546;DHT22;259;53.304;9.816;2022-09-09T15:07:49;18.70;99.60
546;DHT22;259;53.304;9.816;2022-09-09T15:10:15;18.70;99.50
546;DHT22;259;53.304;9.816;2022-09-09T15:12:42;18.70;99.60
546;DHT22;259;53.304;9.816;2022-09-09T15:15:08;18.70;99.80
546;DHT22;259;53.304;9.816;2022-09-09T15:17:34;18.70;99.60
546;DHT22;259;53.304;9.816;2022-09-09T15:20:00;18.70;99.60
546;DHT22;259;53.304;9.816;2022-09-09T15:22:26;18.70;99.60
546;DHT22;259;53.304;9.816;2022-09-09T15:24:51;18.70;99.50
546;DHT22;259;53.304;9.816;2022-09-09T15:27:17;18.70;99.50
546;DHT22;259;53.304;9.816;2022-09-09T15:29:43;18.70;99.50
546;DHT22;259;53.304;9.816;2022-09-09T15:32:09;18.70;99.50
546;DHT22;259;53.304;9.816;2022-09-09T15:34:35;18.70;99.50
546;DHT22;259;53.304;9.816;2022-09-09T15:37:01;18.70;99.50
546;DHT22;259;53.304;9.816;2022-09-09T15:39:27;18.70;99.50
546;DHT22;259;53.304;9.816;2022-09-09T15:41:52;18.70;99.50
546;DHT22;259;53.304;9.816;2022-09-09T15:44:18;18.70;99.50
546;DHT22;259;53.304;9.816;2022-09-09T15:46:46;18.70;99.50
546;DHT22;259;53.304;9.816;2022-09-09T15:49:24;18.70;99.50
546;DHT22;259;53.304;9.816;2022-09-09T15:51:58;18.70;99.50
546;DHT22;259;53.304;9.816;2022-09-09T15:54:27;18.70;99.50
546;DHT22;259;53.304;9.816;2022-09-09T15:56:58;18.70;99.50
546;DHT22;259;53.304;9.816;2022-09-09T15:59:24;18.70;99.50
546;DHT22;259;53.304;9.816;2022-09-09T16:01:50;18.70;99.40
546;DHT22;259;53.304;9.816;2022-09-09T16:04:20;18.70;99.40
546;DHT22;259;53.304;9.816;2022-09-09T16:06:52;18.70;99.40
546;DHT22;259;53.304;9.816;2022-09-09T16:09:19;18.70;99.40
546;DHT22;259;53.304;9.816;2022-09-09T16:11:45;18.70;99.40
546;DHT22;259;53.304;9.816;2022-09-09T16:14:12;18.70;99.40
546;DHT22;259;53.304;9.816;2022-09-09T16:16:37;18.70;99.40
546;DHT22;259;53.304;9.816;2022-09-09T16:19:08;18.70;99.40
546;DHT22;259;53.304;9.816;2022-09-09T16:21:38;18.70;99.50
546;DHT22;259;53.304;9.816;2022-09-09T16:24:05;18.70;99.40
546;DHT22;259;53.304;9.816;2022-09-09T16:26:33;18.70;99.40
546;DHT22;259;53.304;9.816;2022-09-09T16:29:00;18.70;99.40
546;DHT22;259;53.304;9.816;2022-09-09T16:31:27;18.70;99.40
546;DHT22;259;53.304;9.816;2022-09-09T16:33:53;18.70;99.40
546;DHT22;259;53.304;9.816;2022-09-09T16:36:27;18.70;99.40
546;DHT22;259;53.304;9.816;2022-09-09T16:38:54;18.70;99.30
546;DHT22;259;53.304;9.816;2022-09-09T16:41:23;18.70;99.30
546;DHT22;259;53.304;9.816;2022-09-09T16:43:53;18.70;99.20
546;DHT22;259;53.304;9.816;2022-09-09T16:46:20;18.70;99.20
546;DHT22;259;53.304;9.816;2022-09-09T16:48:47;18.70;99.10
546;DHT22;259;53.304;9.816;2022-09-09T16:51:23;18.70;99.00
546;DHT22;259;53.304;9.816;2022-09-09T16:53:49;18.70;99.10
546;DHT22;259;53.304;9.816;2022-09-09T16:56:26;18.70;99.10
546;DHT22;259;53.304;9.816;2022-09-09T16:58:57;18.70;99.10
546;DHT22;259;53.304;9.816;2022-09-09T17:01:28;18.70;99.10
546;DHT22;259;53.304;9.816;2022-09-09T17:03:58;18.70;99.10
546;DHT22;259;53.304;9.816;2022-09-09T17:06:24;18.70;99.20
546;DHT22;259;53.304;9.816;2022-09-09T17:08:57;18.60;99.00
546;DHT22;259;53.304;9.816;2022-09-09T17:11:23;18.70;99.10
546;DHT22;259;53.304;9.816;2022-09-09T17:13:50;18.60;99.10
546;DHT22;259;53.304;9.816;2022-09-09T17:16:18;18.60;99.10
546;DHT22;259;53.304;9.816;2022-09-09T17:18:44;18.60;99.10
546;DHT22;259;53.304;9.816;2022-09-09T17:21:17;18.60;99.00
546;DHT22;259;53.304;9.816;2022-09-09T17:23:44;18.60;99.10
546;DHT22;259;53.304;9.816;2022-09-09T17:26:13;18.60;99.10
546;DHT22;259;53.304;9.816;2022-09-09T17:28:39;18.60;99.00
546;DHT22;259;53.304;9.816;2022-09-09T17:31:06;18.60;99.00
546;DHT22;259;53.304;9.816;2022-09-09T17:33:34;18.60;99.10
546;DHT22;259;53.304;9.816;2022-09-09T17:36:02;18.60;99.10
546;DHT22;259;53.304;9.816;2022-09-09T17:38:31;18.60;99.10
546;DHT22;259;53.304;9.816;2022-09-09T17:43:31;18.60;99.10
546;DHT22;259;53.304;9.816;2022-09-09T17:46:27;18.60;99.10
546;DHT22;259;53.304;9.816;2022-09-09T17:48:55;18.60;99.00
546;DHT22;259;53.304;9.816;2022-09-09T17:51:23;18.60;99.00
546;DHT22;259;53.304;9.816;2022-09-09T17:53:50;18.60;99.00
546;DHT22;259;53.304;9.816;2022-09-09T17:56:19;18.50;99.00
546;DHT22;259;53.304;9.816;2022-09-09T17:58:46;18.50;99.00
546;DHT22;259;53.304;9.816;2022-09-09T18:01:15;18.50;99.00
546;DHT22;259;53.304;9.816;2022-09-09T18:03:42;18.50;99.00
546;DHT22;259;53.304;9.816;2022-09-09T18:06:11;18.50;99.00
546;DHT22;259;53.304;9.816;2022-09-09T18:08:41;18.50;99.00
546;DHT22;259;53.304;9.816;2022-09-09T18:11:07;18.50;98.90
546;DHT22;259;53.304;9.816;2022-09-09T18:13:33;18.50;98.90
546;DHT22;259;53.304;9.816;2022-09-09T18:15:59;18.50;98.90
546;DHT22;259;53.304;9.816;2022-09-09T18:18:26;18.50;98.70
546;DHT22;259;53.304;9.816;2022-09-09T18:21:05;18.50;98.80
546;DHT22;259;53.304;9.816;2022-09-09T18:23:39;18.50;98.40
546;DHT22;259;53.304;9.816;2022-09-09T18:26:13;18.50;98.30
546;DHT22;259;53.304;9.816;2022-09-09T18:28:40;18.50;98.20
546;DHT22;259;53.304;9.816;2022-09-09T18:31:12;18.50;98.40
546;DHT22;259;53.304;9.816;2022-09-09T18:33:40;18.50;98.70
546;DHT22;259;53.304;9.816;2022-09-09T18:36:26;18.50;98.80
546;DHT22;259;53.304;9.816;2022-09-09T18:38:53;18.50;99.00
546;DHT22;259;53.304;9.816;2022-09-09T18:41:27;18.50;98.90
546;DHT22;259;53.304;9.816;2022-09-09T18:43:56;18.50;98.90
546;DHT22;259;53.304;9.816;2022-09-09T18:46:23;18.50;98.90
546;DHT22;259;53.304;9.816;2022-09-09T18:48:50;18.50;98.90
546;DHT22;259;53.304;9.816;2022-09-09T18:51:18;18.50;98.90
546;DHT22;259;53.304;9.816;2022-09-09T18:54:38;18.50;98.90
546;DHT22;259;53.304;9.816;2022-09-09T18:57:00;18.50;98.90
546;DHT22;259;53.304;9.816;2022-09-09T18:59:26;18.40;98.90
546;DHT22;259;53.304;9.816;2022-09-09T19:01:53;18.40;98.90
546;DHT22;259;53.304;9.816;2022-09-09T19:04:20;18.40;98.90